sensor_id;sensor_type;location;lat;lon;timestamp;pressure;altitude;pressure_sealevel;temperature;humidity
8140;BME280;4111;50.972;7.072;2023-02-21T00:01:16;101625.63;;;9.88;94.02
8140;BME280;4111;50.972;7.072;2023-02-21T00:04:01;101637.03;;;9.97;94.03
8140;BME280;4111;50.972;7.072;2023-02-21T00:06:46;101632.25;;;9.99;94.04
8140;BME280;4111;50.972;7.072;2023-02-21T00:09:31;101630.16;;;9.95;94.19
8140;BME280;4111;50.972;7.072;2023-02-21T00:12:15;101628.56;;;9.87;94.00
8140;BME280;4111;50.972;7.072;2023-02-21T00:15:00;101637.44;;;9.69;94.30
8140;BME280;4111;50.972;7.072;2023-02-21T00:17:45;101622.19;;;9.75;94.69
8140;BME280;4111;50.972;7.072;2023-02-21T00:20:29;101619.28;;;9.69;94.99
8140;BME280;4111;50.972;7.072;2023-02-21T00:23:14;101623.28;;;9.67;94.69
8140;BME280;4111;50.972;7.072;2023-02-21T00:25:59;101635.22;;;9.59;95.42
8140;BME280;4111;50.972;7.072;2023-02-21T00:28:44;101633.78;;;9.57;95.52
8140;BME280;4111;50.972;7.072;2023-02-21T00:31:29;101626.91;;;9.54;95.97
8140;BME280;4111;50.972;7.072;2023-02-21T00:34:14;101620.78;;;9.65;95.70
8140;BME280;4111;50.972;7.072;2023-02-21T00:36:59;101624.09;;;9.67;95.46
8140;BME280;4111;50.972;7.072;2023-02-21T00:39:44;101637.44;;;9.69;95.31
8140;BME280;4111;50.972;7.072;2023-02-21T00:42:29;101638.25;;;9.69;95.73
8140;BME280;4111;50.972;7.072;2023-02-21T00:45:15;101634.69;;;9.76;95.15
8140;BME280;4111;50.972;7.072;2023-02-21T00:48:00;101629.88;;;9.78;94.83
8140;BME280;4111;50.972;7.072;2023-02-21T00:50:44;101633.63;;;9.77;95.06
8140;BME280;4111;50.972;7.072;2023-02-21T00:53:29;101637.41;;;9.76;95.06
8140;BME280;4111;50.972;7.072;2023-02-21T00:56:14;101635.75;;;9.75;95.29
8140;BME280;4111;50.972;7.072;2023-02-21T00:58:59;101632.00;;;9.76;95.07
8140;BME280;4111;50.972;7.072;2023-02-21T01:01:44;101635.00;;;9.61;95.17
8140;BME280;4111;50.972;7.072;2023-02-21T01:04:28;101625.16;;;9.66;95.55
8140;BME280;4111;50.972;7.072;2023-02-21T01:07:13;101625.97;;;9.67;96.00
8140;BME280;4111;50.972;7.072;2023-02-21T01:09:58;101627.38;;;9.76;95.69
8140;BME280;4111;50.972;7.072;2023-02-21T01:12:43;101615.25;;;9.79;95.43
8140;BME280;4111;50.972;7.072;2023-02-21T01:15:28;101612.41;;;9.73;95.37
8140;BME280;4111;50.972;7.072;2023-02-21T01:18:12;101626.13;;;9.79;95.51
8140;BME280;4111;50.972;7.072;2023-02-21T01:20:57;101622.38;;;9.80;95.59
8140;BME280;4111;50.972;7.072;2023-02-21T01:23:42;101628.44;;;9.75;95.57
8140;BME280;4111;50.972;7.072;2023-02-21T01:26:27;101620.06;;;9.77;95.61
8140;BME280;4111;50.972;7.072;2023-02-21T01:29:12;101623.19;;;9.80;95.83
8140;BME280;4111;50.972;7.072;2023-02-21T01:31:57;101614.66;;;9.77;95.89
8140;BME280;4111;50.972;7.072;2023-02-21T01:34:41;101615.31;;;9.72;95.62
8140;BME280;4111;50.972;7.072;2023-02-21T01:37:26;101618.84;;;9.72;95.82
8140;BME280;4111;50.972;7.072;2023-02-21T01:40:14;101619.88;;;9.71;95.88
8140;BME280;4111;50.972;7.072;2023-02-21T01:42:59;101610.50;;;9.74;95.98
8140;BME280;4111;50.972;7.072;2023-02-21T01:45:47;101609.69;;;9.73;95.64
8140;BME280;4111;50.972;7.072;2023-02-21T01:48:33;101604.41;;;9.79;95.51
8140;BME280;4111;50.972;7.072;2023-02-21T01:51:23;101608.63;;;9.75;95.72
8140;BME280;4111;50.972;7.072;2023-02-21T01:54:09;101601.09;;;9.77;95.39
8140;BME280;4111;50.972;7.072;2023-02-21T01:56:55;101607.59;;;9.76;95.64
8140;BME280;4111;50.972;7.072;2023-02-21T01:59:42;101597.38;;;9.71;95.95
8140;BME280;4111;50.972;7.072;2023-02-21T02:02:34;101605.91;;;9.75;95.92
8140;BME280;4111;50.972;7.072;2023-02-21T02:05:20;101599.44;;;9.76;95.88
8140;BME280;4111;50.972;7.072;2023-02-21T02:08:06;101599.88;;;9.72;95.99
8140;BME280;4111;50.972;7.072;2023-02-21T02:11:00;101588.00;;;9.73;96.19
8140;BME280;4111;50.972;7.072;2023-02-21T02:14:03;101594.84;;;9.76;96.42
8140;BME280;4111;50.972;7.072;2023-02-21T02:16:45;101599.38;;;9.82;96.12
8140;BME280;4111;50.972;7.072;2023-02-21T02:28:26;101586.81;;;9.88;96.22
8140;BME280;4111;50.972;7.072;2023-02-21T02:36:44;101575.03;;;9.76;96.45
8140;BME280;4111;50.972;7.072;2023-02-21T02:39:23;101577.06;;;9.80;96.37
8140;BME280;4111;50.972;7.072;2023-02-21T02:44:28;101576.88;;;9.82;96.42
8140;BME280;4111;50.972;7.072;2023-02-21T02:47:00;101579.38;;;9.77;96.40
8140;BME280;4111;50.972;7.072;2023-02-21T02:49:30;101581.50;;;9.75;96.52
8140;BME280;4111;50.972;7.072;2023-02-21T02:52:07;101574.44;;;9.73;96.83
8140;BME280;4111;50.972;7.072;2023-02-21T02:54:34;101581.50;;;9.75;96.92
8140;BME280;4111;50.972;7.072;2023-02-21T02:57:03;101575.03;;;9.76;96.75
8140;BME280;4111;50.972;7.072;2023-02-21T02:59:37;101575.19;;;9.81;96.72
8140;BME280;4111;50.972;7.072;2023-02-21T03:05:20;101569.16;;;9.79;96.58
8140;BME280;4111;50.972;7.072;2023-02-21T03:07:54;101566.00;;;9.82;96.79
8140;BME280;4111;50.972;7.072;2023-02-21T03:10:38;101561.19;;;9.84;96.47
8140;BME280;4111;50.972;7.072;2023-02-21T03:13:14;101564.78;;;9.78;96.47
8140;BME280;4111;50.972;7.072;2023-02-21T03:15:51;101568.81;;;9.68;96.52
8140;BME280;4111;50.972;7.072;2023-02-21T03:18:27;101558.47;;;9.59;96.67
8140;BME280;4111;50.972;7.072;2023-02-21T03:21:00;101557.19;;;9.61;96.92
8140;BME280;4111;50.972;7.072;2023-02-21T03:23:30;101558.25;;;9.60;97.18
8140;BME280;4111;50.972;7.072;2023-02-21T03:26:02;101562.78;;;9.66;97.14
8140;BME280;4111;50.972;7.072;2023-02-21T03:28:30;101552.22;;;9.58;97.26
8140;BME280;4111;50.972;7.072;2023-02-21T03:30:58;101559.34;;;9.52;97.36
8140;BME280;4111;50.972;7.072;2023-02-21T03:33:25;101560.38;;;9.51;97.80
8140;BME280;4111;50.972;7.072;2023-02-21T03:35:52;101564.97;;;9.51;97.69
8140;BME280;4111;50.972;7.072;2023-02-21T03:38:18;101557.47;;;9.53;97.71
8140;BME280;4111;50.972;7.072;2023-02-21T03:40:45;101553.72;;;9.54;97.55
8140;BME280;4111;50.972;7.072;2023-02-21T03:43:11;101552.44;;;9.57;97.51
8140;BME280;4111;50.972;7.072;2023-02-21T03:45:38;101559.50;;;9.58;97.13
8140;BME280;4111;50.972;7.072;2023-02-21T03:48:04;101557.19;;;9.61;97.39
8140;BME280;4111;50.972;7.072;2023-02-21T03:50:31;101561.19;;;9.59;97.27
8140;BME280;4111;50.972;7.072;2023-02-21T03:52:57;101547.84;;;9.57;97.48
8140;BME280;4111;50.972;7.072;2023-02-21T03:55:23;101547.84;;;9.57;97.09
8140;BME280;4111;50.972;7.072;2023-02-21T03:57:50;101548.66;;;9.58;96.76
8140;BME280;4111;50.972;7.072;2023-02-21T04:00:16;101549.28;;;9.60;96.83
8140;BME280;4111;50.972;7.072;2023-02-21T04:02:43;101551.16;;;9.59;96.53
8140;BME280;4111;50.972;7.072;2023-02-21T04:05:10;101549.50;;;9.58;96.60
8140;BME280;4111;50.972;7.072;2023-02-21T04:07:36;101549.09;;;9.55;96.79
8140;BME280;4111;50.972;7.072;2023-02-21T04:10:03;101553.25;;;9.57;96.67
8140;BME280;4111;50.972;7.072;2023-02-21T04:12:29;101555.16;;;9.57;96.75
8140;BME280;4111;50.972;7.072;2023-02-21T04:14:56;101547.84;;;9.57;96.75
8140;BME280;4111;50.972;7.072;2023-02-21T04:17:24;101540.75;;;9.56;96.66
8140;BME280;4111;50.972;7.072;2023-02-21T04:19:51;101535.75;;;9.53;96.69
8140;BME280;4111;50.972;7.072;2023-02-21T04:22:17;101537.25;;;9.49;96.98
8140;BME280;4111;50.972;7.072;2023-02-21T04:24:44;101538.69;;;9.51;96.61
8140;BME280;4111;50.972;7.072;2023-02-21T04:27:10;101535.81;;;9.46;97.16
8140;BME280;4111;50.972;7.072;2023-02-21T04:29:37;101537.25;;;9.49;97.05
8140;BME280;4111;50.972;7.072;2023-02-21T04:32:03;101534.53;;;9.49;97.35
8140;BME280;4111;50.972;7.072;2023-02-21T04:34:30;101538.66;;;9.58;97.33
8140;BME280;4111;50.972;7.072;2023-02-21T04:36:56;101535.94;;;9.58;97.07
8140;BME280;4111;50.972;7.072;2023-02-21T04:39:23;101546.59;;;9.60;96.83
8140;BME280;4111;50.972;7.072;2023-02-21T04:41:49;101548.44;;;9.59;96.69
8140;BME280;4111;50.972;7.072;2023-02-21T04:44:15;101549.50;;;9.58;96.54
8140;BME280;4111;50.972;7.072;2023-02-21T04:46:43;101544.09;;;9.58;96.98
8140;BME280;4111;50.972;7.072;2023-02-21T04:49:11;101543.63;;;9.61;96.76
8140;BME280;4111;50.972;7.072;2023-02-21T04:51:38;101534.44;;;9.62;96.67
8140;BME280;4111;50.972;7.072;2023-02-21T04:54:05;101542.81;;;9.61;96.90
8140;BME280;4111;50.972;7.072;2023-02-21T04:56:32;101525.72;;;9.60;97.08
8140;BME280;4111;50.972;7.072;2023-02-21T04:58:59;101531.97;;;9.61;96.67
8140;BME280;4111;50.972;7.072;2023-02-21T05:01:27;101529.47;;;9.59;96.64
8140;BME280;4111;50.972;7.072;2023-02-21T05:03:57;101527.22;;;9.56;96.60
8140;BME280;4111;50.972;7.072;2023-02-21T05:06:24;101530.75;;;9.57;96.66
8140;BME280;4111;50.972;7.072;2023-02-21T05:08:51;101534.13;;;9.52;96.34
8140;BME280;4111;50.972;7.072;2023-02-21T05:11:19;101536.44;;;9.48;96.38
8140;BME280;4111;50.972;7.072;2023-02-21T05:13:47;101535.38;;;9.49;96.43
8140;BME280;4111;50.972;7.072;2023-02-21T05:16:14;101537.03;;;9.50;96.49
8140;BME280;4111;50.972;7.072;2023-02-21T05:18:41;101536.66;;;9.47;96.41
8140;BME280;4111;50.972;7.072;2023-02-21T05:21:08;101544.50;;;9.55;96.60
8140;BME280;4111;50.972;7.072;2023-02-21T05:23:35;101539.47;;;9.59;96.20
8140;BME280;4111;50.972;7.072;2023-02-21T05:26:04;101548.44;;;9.59;95.99
8140;BME280;4111;50.972;7.072;2023-02-21T05:28:31;101546.78;;;9.58;96.15
8140;BME280;4111;50.972;7.072;2023-02-21T05:30:57;101544.09;;;9.58;96.26
8140;BME280;4111;50.972;7.072;2023-02-21T05:33:26;101538.69;;;9.51;96.25
8140;BME280;4111;50.972;7.072;2023-02-21T05:35:52;101531.16;;;9.53;96.36
8140;BME280;4111;50.972;7.072;2023-02-21T05:38:21;101535.72;;;9.60;96.72
8140;BME280;4111;50.972;7.072;2023-02-21T05:40:47;101528.03;;;9.57;96.70
8140;BME280;4111;50.972;7.072;2023-02-21T05:43:15;101534.88;;;9.59;96.76
8140;BME280;4111;50.972;7.072;2023-02-21T05:45:41;101533.84;;;9.60;96.66
8140;BME280;4111;50.972;7.072;2023-02-21T05:48:07;101534.06;;;9.59;96.65
8140;BME280;4111;50.972;7.072;2023-02-21T05:50:34;101531.97;;;9.61;96.76
8140;BME280;4111;50.972;7.072;2023-02-21T05:53:01;101530.47;;;9.65;96.62
8140;BME280;4111;50.972;7.072;2023-02-21T05:55:27;101532.34;;;9.64;96.77
8140;BME280;4111;50.972;7.072;2023-02-21T05:57:53;101532.16;;;9.59;96.42
8140;BME280;4111;50.972;7.072;2023-02-21T06:00:21;101524.66;;;9.61;96.54
8140;BME280;4111;50.972;7.072;2023-02-21T06:02:49;101536.56;;;9.60;96.60
8140;BME280;4111;50.972;7.072;2023-02-21T06:05:18;101529.63;;;9.64;96.76
8140;BME280;4111;50.972;7.072;2023-02-21T06:07:45;101529.44;;;9.66;96.62
8140;BME280;4111;50.972;7.072;2023-02-21T06:10:12;101533.56;;;9.68;96.44
8140;BME280;4111;50.972;7.072;2023-02-21T06:12:39;101541.03;;;9.73;96.36
8140;BME280;4111;50.972;7.072;2023-02-21T06:15:06;101538.53;;;9.71;96.36
8140;BME280;4111;50.972;7.072;2023-02-21T06:17:33;101538.94;;;9.75;96.39
8140;BME280;4111;50.972;7.072;2023-02-21T06:20:01;101538.88;;;9.82;96.26
8140;BME280;4111;50.972;7.072;2023-02-21T06:22:28;101535.72;;;9.85;96.09
8140;BME280;4111;50.972;7.072;2023-02-21T06:24:54;101536.59;;;9.79;95.92
8140;BME280;4111;50.972;7.072;2023-02-21T06:27:20;101540.75;;;9.81;96.05
8140;BME280;4111;50.972;7.072;2023-02-21T06:29:47;101542.44;;;9.82;96.01
8140;BME280;4111;50.972;7.072;2023-02-21T06:32:13;101539.09;;;9.80;95.75
8140;BME280;4111;50.972;7.072;2023-02-21T06:34:42;101544.41;;;9.68;95.38
8140;BME280;4111;50.972;7.072;2023-02-21T06:37:09;101536.50;;;9.67;95.87
8140;BME280;4111;50.972;7.072;2023-02-21T06:39:38;101532.06;;;9.72;95.99
8140;BME280;4111;50.972;7.072;2023-02-21T06:42:04;101541.25;;;9.71;96.04
8140;BME280;4111;50.972;7.072;2023-02-21T06:44:31;101551.88;;;9.73;95.59
8140;BME280;4111;50.972;7.072;2023-02-21T06:46:58;101547.72;;;9.70;95.51
8140;BME280;4111;50.972;7.072;2023-02-21T06:49:24;101553.16;;;9.70;95.81
8140;BME280;4111;50.972;7.072;2023-02-21T06:51:50;101548.16;;;9.67;95.91
8140;BME280;4111;50.972;7.072;2023-02-21T06:54:17;101557.38;;;9.66;96.27
8140;BME280;4111;50.972;7.072;2023-02-21T06:56:43;101549.00;;;9.68;96.21
8140;BME280;4111;50.972;7.072;2023-02-21T06:59:10;101548.63;;;9.64;96.29
8140;BME280;4111;50.972;7.072;2023-02-21T07:01:36;101547.72;;;9.70;96.33
8140;BME280;4111;50.972;7.072;2023-02-21T07:04:03;101546.06;;;9.69;96.30
8140;BME280;4111;50.972;7.072;2023-02-21T07:06:29;101550.88;;;9.67;96.70
8140;BME280;4111;50.972;7.072;2023-02-21T07:08:58;101541.09;;;9.66;96.64
8140;BME280;4111;50.972;7.072;2023-02-21T07:11:24;101544.41;;;9.68;96.83
8140;BME280;4111;50.972;7.072;2023-02-21T07:13:52;101545.03;;;9.70;96.74
8140;BME280;4111;50.972;7.072;2023-02-21T07:16:19;101556.47;;;9.72;96.56
8140;BME280;4111;50.972;7.072;2023-02-21T07:18:46;101543.97;;;9.71;96.27
8140;BME280;4111;50.972;7.072;2023-02-21T07:21:14;101544.03;;;9.65;96.70
8140;BME280;4111;50.972;7.072;2023-02-21T07:23:45;101549.84;;;9.68;96.59
8140;BME280;4111;50.972;7.072;2023-02-21T07:26:13;101542.75;;;9.67;96.68
8140;BME280;4111;50.972;7.072;2023-02-21T07:28:40;101550.13;;;9.60;97.03
8140;BME280;4111;50.972;7.072;2023-02-21T07:31:07;101548.63;;;9.64;96.90
8140;BME280;4111;50.972;7.072;2023-02-21T07:33:33;101544.63;;;9.67;97.78
8140;BME280;4111;50.972;7.072;2023-02-21T07:36:00;101557.03;;;9.56;97.44
8140;BME280;4111;50.972;7.072;2023-02-21T07:38:28;101549.94;;;9.55;97.76
8140;BME280;4111;50.972;7.072;2023-02-21T07:40:57;101550.13;;;9.60;98.40
8140;BME280;4111;50.972;7.072;2023-02-21T07:43:25;101552.00;;;9.60;98.61
8140;BME280;4111;50.972;7.072;2023-02-21T07:45:52;101559.06;;;9.61;98.73
8140;BME280;4111;50.972;7.072;2023-02-21T07:48:19;101555.97;;;9.57;99.38
8140;BME280;4111;50.972;7.072;2023-02-21T07:50:46;101556.53;;;9.66;99.07
8140;BME280;4111;50.972;7.072;2023-02-21T07:53:14;101561.91;;;9.72;98.95
8140;BME280;4111;50.972;7.072;2023-02-21T07:55:41;101556.53;;;9.66;98.53
8140;BME280;4111;50.972;7.072;2023-02-21T07:58:07;101558.69;;;9.57;98.08
8140;BME280;4111;50.972;7.072;2023-02-21T08:00:34;101562.88;;;9.53;98.62
8140;BME280;4111;50.972;7.072;2023-02-21T08:03:02;101557.03;;;9.56;98.75
8140;BME280;4111;50.972;7.072;2023-02-21T08:05:28;101556.56;;;9.59;99.12
8140;BME280;4111;50.972;7.072;2023-02-21T08:07:54;101553.84;;;9.66;99.65
8140;BME280;4111;50.972;7.072;2023-02-21T08:10:24;101555.25;;;9.68;99.14
8140;BME280;4111;50.972;7.072;2023-02-21T08:12:50;101554.81;;;9.71;99.10
8140;BME280;4111;50.972;7.072;2023-02-21T08:15:17;101552.50;;;9.75;98.73
8140;BME280;4111;50.972;7.072;2023-02-21T08:17:46;101553.59;;;9.67;98.78
8140;BME280;4111;50.972;7.072;2023-02-21T08:20:13;101556.06;;;9.76;98.89
8140;BME280;4111;50.972;7.072;2023-02-21T08:22:39;101560.59;;;9.82;99.04
8140;BME280;4111;50.972;7.072;2023-02-21T08:25:06;101553.06;;;9.84;98.43
8140;BME280;4111;50.972;7.072;2023-02-21T08:27:32;101554.56;;;9.80;98.12
8140;BME280;4111;50.972;7.072;2023-02-21T08:29:59;101554.78;;;9.78;98.37
8140;BME280;4111;50.972;7.072;2023-02-21T08:32:25;101548.06;;;9.81;99.00
8140;BME280;4111;50.972;7.072;2023-02-21T08:34:52;101543.84;;;9.85;98.86
8140;BME280;4111;50.972;7.072;2023-02-21T08:37:18;101545.91;;;9.89;98.82
8140;BME280;4111;50.972;7.072;2023-02-21T08:39:50;101550.75;;;9.87;98.95
8140;BME280;4111;50.972;7.072;2023-02-21T08:42:18;101545.97;;;9.83;98.89
8140;BME280;4111;50.972;7.072;2023-02-21T08:44:46;101550.06;;;9.92;98.99
8140;BME280;4111;50.972;7.072;2023-02-21T08:47:13;101549.28;;;9.85;98.62
8140;BME280;4111;50.972;7.072;2023-02-21T08:49:44;101548.06;;;9.81;99.02
8140;BME280;4111;50.972;7.072;2023-02-21T08:52:16;101554.69;;;9.85;99.15
8140;BME280;4111;50.972;7.072;2023-02-21T08:54:44;101552.16;;;9.90;98.97
8140;BME280;4111;50.972;7.072;2023-02-21T08:57:11;101550.94;;;9.86;98.85
8140;BME280;4111;50.972;7.072;2023-02-21T08:59:41;101551.78;;;9.86;99.05
8140;BME280;4111;50.972;7.072;2023-02-21T09:02:15;101549.75;;;9.82;99.05
8140;BME280;4111;50.972;7.072;2023-02-21T09:04:43;101547.78;;;9.89;99.37
8140;BME280;4111;50.972;7.072;2023-02-21T09:07:13;101558.19;;;9.92;99.19
8140;BME280;4111;50.972;7.072;2023-02-21T09:09:40;101558.19;;;9.92;99.62
8140;BME280;4111;50.972;7.072;2023-02-21T09:12:07;101539.66;;;9.89;99.73
8140;BME280;4111;50.972;7.072;2023-02-21T09:14:34;101550.50;;;9.89;99.40
8140;BME280;4111;50.972;7.072;2023-02-21T09:17:02;101542.13;;;9.90;99.55
8140;BME280;4111;50.972;7.072;2023-02-21T09:19:29;101551.56;;;9.88;99.55
8140;BME280;4111;50.972;7.072;2023-02-21T09:21:56;101547.78;;;9.89;100.00
8140;BME280;4111;50.972;7.072;2023-02-21T09:24:26;101538.22;;;9.86;99.95
8140;BME280;4111;50.972;7.072;2023-02-21T09:26:57;101540.53;;;9.83;100.00
8140;BME280;4111;50.972;7.072;2023-02-21T09:29:25;101537.09;;;9.94;100.00
8140;BME280;4111;50.972;7.072;2023-02-21T09:32:00;101529.41;;;9.91;99.92
8140;BME280;4111;50.972;7.072;2023-02-21T09:34:27;101528.44;;;9.85;99.96
8140;BME280;4111;50.972;7.072;2023-02-21T09:36:53;101530.34;;;9.78;99.87
8140;BME280;4111;50.972;7.072;2023-02-21T09:39:21;101527.88;;;9.77;100.00
8140;BME280;4111;50.972;7.072;2023-02-21T09:41:49;101537.22;;;9.81;100.00
8140;BME280;4111;50.972;7.072;2023-02-21T09:44:20;101524.72;;;9.80;100.00
8140;BME280;4111;50.972;7.072;2023-02-21T09:46:54;101529.97;;;9.75;100.00
8140;BME280;4111;50.972;7.072;2023-02-21T09:49:36;101536.41;;;9.80;100.00
8140;BME280;4111;50.972;7.072;2023-02-21T09:52:04;101530.97;;;9.80;100.00
8140;BME280;4111;50.972;7.072;2023-02-21T09:54:34;101535.56;;;9.80;100.00
8140;BME280;4111;50.972;7.072;2023-02-21T09:57:04;101528.19;;;9.87;100.00
8140;BME280;4111;50.972;7.072;2023-02-21T09:59:31;101530.47;;;9.90;100.00
8140;BME280;4111;50.972;7.072;2023-02-21T10:04:59;101527.03;;;10.01;100.00
8140;BME280;4111;50.972;7.072;2023-02-21T10:07:54;101529.13;;;9.99;100.00
8140;BME280;4111;50.972;7.072;2023-02-21T10:13:02;101523.81;;;9.86;99.97
8140;BME280;4111;50.972;7.072;2023-02-21T10:15:38;101536.06;;;9.70;100.00
8140;BME280;4111;50.972;7.072;2023-02-21T10:20:48;101532.25;;;9.78;100.00
8140;BME280;4111;50.972;7.072;2023-02-21T10:23:27;101536.56;;;9.85;100.00
8140;BME280;4111;50.972;7.072;2023-02-21T10:26:05;101529.66;;;9.89;100.00
8140;BME280;4111;50.972;7.072;2023-02-21T10:28:35;101524.56;;;9.93;100.00
8140;BME280;4111;50.972;7.072;2023-02-21T10:31:07;101526.25;;;9.94;100.00
8140;BME280;4111;50.972;7.072;2023-02-21T10:33:36;101527.03;;;10.01;100.00
8140;BME280;4111;50.972;7.072;2023-02-21T10:36:10;101523.72;;;9.99;100.00
8140;BME280;4111;50.972;7.072;2023-02-21T10:38:39;101527.38;;;10.05;100.00
8140;BME280;4111;50.972;7.072;2023-02-21T10:41:09;101527.78;;;10.08;100.00
8140;BME280;4111;50.972;7.072;2023-02-21T10:43:44;101519.63;;;10.08;100.00
8140;BME280;4111;50.972;7.072;2023-02-21T10:46:30;101525.28;;;10.07;100.00
8140;BME280;4111;50.972;7.072;2023-02-21T10:49:16;101523.84;;;10.04;100.00
8140;BME280;4111;50.972;7.072;2023-02-21T10:51:45;101534.91;;;10.03;100.00
8140;BME280;4111;50.972;7.072;2023-02-21T10:54:18;101530.06;;;10.11;100.00
8140;BME280;4111;50.972;7.072;2023-02-21T10:56:50;101521.22;;;10.16;100.00
8140;BME280;4111;50.972;7.072;2023-02-21T10:59:31;101527.47;;;10.17;100.00
8140;BME280;4111;50.972;7.072;2023-02-21T11:02:00;101519.34;;;10.17;100.00
8140;BME280;4111;50.972;7.072;2023-02-21T11:04:30;101518.00;;;10.26;100.00
8140;BME280;4111;50.972;7.072;2023-02-21T11:07:07;101520.28;;;10.29;100.00
8140;BME280;4111;50.972;7.072;2023-02-21T11:15:02;101520.53;;;10.21;100.00
8140;BME280;4111;50.972;7.072;2023-02-21T11:17:30;101514.63;;;10.30;100.00
8140;BME280;4111;50.972;7.072;2023-02-21T11:27:43;101494.31;;;10.15;100.00
8140;BME280;4111;50.972;7.072;2023-02-21T11:30:20;101495.44;;;10.07;100.00
8140;BME280;4111;50.972;7.072;2023-02-21T11:32:50;101493.50;;;10.14;100.00
8140;BME280;4111;50.972;7.072;2023-02-21T11:35:21;101477.13;;;10.21;100.00
8140;BME280;4111;50.972;7.072;2023-02-21T11:38:01;101478.78;;;10.22;99.81
8140;BME280;4111;50.972;7.072;2023-02-21T11:40:44;101473.16;;;10.23;99.79
8140;BME280;4111;50.972;7.072;2023-02-21T11:43:25;101470.88;;;10.20;99.68
8140;BME280;4111;50.972;7.072;2023-02-21T11:45:59;101471.00;;;10.07;99.38
8140;BME280;4111;50.972;7.072;2023-02-21T11:48:32;101468.63;;;10.17;99.73
8140;BME280;4111;50.972;7.072;2023-02-21T11:51:04;101459.34;;;10.25;100.00
8140;BME280;4111;50.972;7.072;2023-02-21T11:53:41;101460.41;;;10.24;99.42
8140;BME280;4111;50.972;7.072;2023-02-21T11:59:02;101453.41;;;10.35;99.28
8140;BME280;4111;50.972;7.072;2023-02-21T12:02:01;101457.34;;;10.39;99.22
8140;BME280;4111;50.972;7.072;2023-02-21T12:21:12;101421.84;;;10.70;97.81
8140;BME280;4111;50.972;7.072;2023-02-21T12:26:51;101411.31;;;10.74;97.32
8140;BME280;4111;50.972;7.072;2023-02-21T12:29:46;101415.38;;;10.83;97.19
8140;BME280;4111;50.972;7.072;2023-02-21T12:37:58;101393.94;;;11.17;96.54
8140;BME280;4111;50.972;7.072;2023-02-21T12:40:44;101396.66;;;11.29;96.10
8140;BME280;4111;50.972;7.072;2023-02-21T12:43:43;101396.44;;;11.42;95.12
8140;BME280;4111;50.972;7.072;2023-02-21T12:46:18;101395.84;;;11.64;94.70
8140;BME280;4111;50.972;7.072;2023-02-21T12:51:35;101384.59;;;11.84;93.85
8140;BME280;4111;50.972;7.072;2023-02-21T12:54:29;101383.97;;;12.05;93.52
8140;BME280;4111;50.972;7.072;2023-02-21T12:57:04;101378.06;;;12.08;92.48
8140;BME280;4111;50.972;7.072;2023-02-21T12:59:57;101380.13;;;12.18;91.79
8140;BME280;4111;50.972;7.072;2023-02-21T13:05:35;101366.50;;;12.59;90.32
8140;BME280;4111;50.972;7.072;2023-02-21T13:13:32;101373.81;;;13.04;88.58
8140;BME280;4111;50.972;7.072;2023-02-21T13:16:05;101363.09;;;13.31;88.12
8140;BME280;4111;50.972;7.072;2023-02-21T13:18:39;101357.28;;;13.44;87.37
8140;BME280;4111;50.972;7.072;2023-02-21T13:21:12;101352.91;;;13.43;86.29
8140;BME280;4111;50.972;7.072;2023-02-21T13:24:02;101348.13;;;13.34;85.50
8140;BME280;4111;50.972;7.072;2023-02-21T13:31:47;101332.94;;;13.82;84.57
8140;BME280;4111;50.972;7.072;2023-02-21T13:34:17;101330.06;;;13.66;83.40
8140;BME280;4111;50.972;7.072;2023-02-21T13:36:46;101327.22;;;13.39;83.07
8140;BME280;4111;50.972;7.072;2023-02-21T13:39:21;101326.16;;;13.62;82.70
8140;BME280;4111;50.972;7.072;2023-02-21T13:42:09;101317.53;;;13.93;82.83
8140;BME280;4111;50.972;7.072;2023-02-21T13:44:39;101311.66;;;14.28;82.60
8140;BME280;4111;50.972;7.072;2023-02-21T13:47:09;101307.63;;;14.63;81.99
8140;BME280;4111;50.972;7.072;2023-02-21T13:49:49;101312.91;;;14.75;80.31
8140;BME280;4111;50.972;7.072;2023-02-21T13:58:22;101310.56;;;15.26;78.62
8140;BME280;4111;50.972;7.072;2023-02-21T14:10:49;101291.06;;;16.43;73.98
8140;BME280;4111;50.972;7.072;2023-02-21T14:13:20;101286.66;;;16.68;72.64
8140;BME280;4111;50.972;7.072;2023-02-21T14:15:55;101288.31;;;17.00;72.57
8140;BME280;4111;50.972;7.072;2023-02-21T14:18:27;101287.78;;;16.93;71.31
8140;BME280;4111;50.972;7.072;2023-02-21T14:20:55;101281.66;;;17.37;70.98
8140;BME280;4111;50.972;7.072;2023-02-21T14:23:29;101283.72;;;17.76;70.13
8140;BME280;4111;50.972;7.072;2023-02-21T14:26:01;101287.06;;;18.22;68.75
8140;BME280;4111;50.972;7.072;2023-02-21T14:31:45;101278.69;;;17.98;67.33
8140;BME280;4111;50.972;7.072;2023-02-21T14:34:16;101286.44;;;17.81;67.24
8140;BME280;4111;50.972;7.072;2023-02-21T14:36:45;101283.38;;;17.93;66.96
8140;BME280;4111;50.972;7.072;2023-02-21T14:39:14;101267.69;;;18.03;66.64
8140;BME280;4111;50.972;7.072;2023-02-21T14:42:10;101270.22;;;18.34;65.86
8140;BME280;4111;50.972;7.072;2023-02-21T15:02:33;101255.19;;;17.67;63.88
8140;BME280;4111;50.972;7.072;2023-02-21T15:05:21;101261.19;;;16.93;64.72
8140;BME280;4111;50.972;7.072;2023-02-21T15:07:55;101261.16;;;16.62;65.94
8140;BME280;4111;50.972;7.072;2023-02-21T15:10:28;101254.28;;;16.80;66.71
8140;BME280;4111;50.972;7.072;2023-02-21T15:13:00;101255.38;;;17.15;66.48
8140;BME280;4111;50.972;7.072;2023-02-21T15:18:00;101253.09;;;15.79;67.79
8140;BME280;4111;50.972;7.072;2023-02-21T15:20:27;101254.09;;;15.52;68.57
8140;BME280;4111;50.972;7.072;2023-02-21T15:22:59;101246.16;;;15.03;70.15
8140;BME280;4111;50.972;7.072;2023-02-21T15:25:27;101243.09;;;14.57;71.62
8140;BME280;4111;50.972;7.072;2023-02-21T15:27:56;101241.69;;;14.27;72.96
8140;BME280;4111;50.972;7.072;2023-02-21T15:30:37;101244.75;;;14.03;73.92
8140;BME280;4111;50.972;7.072;2023-02-21T15:33:18;101241.19;;;13.76;75.15
8140;BME280;4111;50.972;7.072;2023-02-21T15:35:56;101238.84;;;13.84;75.74
8140;BME280;4111;50.972;7.072;2023-02-21T15:41:28;101241.25;;;13.81;76.49
8140;BME280;4111;50.972;7.072;2023-02-21T15:47:03;101236.56;;;13.54;77.47
8140;BME280;4111;50.972;7.072;2023-02-21T15:49:34;101240.13;;;13.55;77.61
8140;BME280;4111;50.972;7.072;2023-02-21T15:52:03;101231.53;;;13.46;77.73
8140;BME280;4111;50.972;7.072;2023-02-21T15:54:35;101233.25;;;13.30;78.53
8140;BME280;4111;50.972;7.072;2023-02-21T15:59:38;101230.16;;;13.04;79.75
8140;BME280;4111;50.972;7.072;2023-02-21T16:04:36;101237.19;;;12.83;80.78